Portada
METAR-TAF:

METAR-TAF

Aeropuertos :

Aeropuerto de Tetuán-Sania Ramel

Tetuán, Marruecos

latitud: 35-35N, longitud: 005-20W, altitud: 10 m

Observación

El informe se hizo hace 30 minutos, a las 01:00 UTC
Viento 5 kt del norte
Temperatura 12°C
Humedad 100%
Presión 1020 hPa
Visibilidad: 3000 m
Nubes dispersas a una altura de 1700 ft, Cumulus congestus.
Escasas nubes a una altura de 2400 ft, Cumulonimbus.
Cielo nuboso a una altura de 3000 ft
tormenta, lluvia

METAR: GMTN 020100Z 35005KT 3000 TSRA SCT017TCU FEW024CB BKN030 12/12 Q1020 NOSIG

Hora: 02:30 (01:30 UTC)


TAF: falta

Observaciones y pronósticos meteorológicos de más de 4000 aeropuertos (mensajes METAR y TAF).

Los puntos amarillos y rojos representan las estaciones disponibles.

Ponga el ratón en el punto deseado para ver el nombre de la estación.

Haga clic para ver las observaciones y los pronósticos meteorológicos.

Para cambiar el mapa : haga clic en los botones verdes con una cruz de color negro para hacer un zoom, en el botón verde con un guión para alejar o en las flechas verdes para mapas adyacentes.


METAR-TAF: